sensor_id;sensor_type;location;lat;lon;timestamp;P1;durP1;ratioP1;P2;durP2;ratioP2
1949;SDS011;975;48.760;9.152;2022-09-29T00:00:55;5.53;;;2.20;;
1949;SDS011;975;48.760;9.152;2022-09-29T00:03:22;2.80;;;1.88;;
1949;SDS011;975;48.760;9.152;2022-09-29T00:05:51;4.75;;;2.20;;
1949;SDS011;975;48.760;9.152;2022-09-29T00:08:19;5.15;;;2.05;;
1949;SDS011;975;48.760;9.152;2022-09-29T00:10:47;3.75;;;2.17;;
1949;SDS011;975;48.760;9.152;2022-09-29T00:13:15;4.07;;;1.88;;
1949;SDS011;975;48.760;9.152;2022-09-29T00:15:43;3.25;;;1.95;;
1949;SDS011;975;48.760;9.152;2022-09-29T00:18:12;5.28;;;1.98;;
1949;SDS011;975;48.760;9.152;2022-09-29T00:20:40;3.75;;;2.00;;
1949;SDS011;975;48.760;9.152;2022-09-29T00:23:08;4.10;;;2.00;;
1949;SDS011;975;48.760;9.152;2022-09-29T00:25:38;3.15;;;1.70;;
1949;SDS011;975;48.760;9.152;2022-09-29T00:28:06;3.85;;;2.25;;
1949;SDS011;975;48.760;9.152;2022-09-29T00:30:33;3.70;;;1.90;;
1949;SDS011;975;48.760;9.152;2022-09-29T00:33:01;5.65;;;2.00;;
1949;SDS011;975;48.760;9.152;2022-09-29T00:35:30;5.88;;;1.92;;
1949;SDS011;975;48.760;9.152;2022-09-29T00:37:58;2.53;;;1.73;;
1949;SDS011;975;48.760;9.152;2022-09-29T00:40:25;5.68;;;1.75;;
1949;SDS011;975;48.760;9.152;2022-09-29T00:42:53;3.65;;;1.83;;
1949;SDS011;975;48.760;9.152;2022-09-29T00:45:21;3.35;;;2.22;;
1949;SDS011;975;48.760;9.152;2022-09-29T00:47:50;6.68;;;2.50;;
1949;SDS011;975;48.760;9.152;2022-09-29T00:50:21;4.25;;;1.90;;
1949;SDS011;975;48.760;9.152;2022-09-29T00:55:19;3.47;;;2.15;;
1949;SDS011;975;48.760;9.152;2022-09-29T00:57:49;3.47;;;1.90;;
1949;SDS011;975;48.760;9.152;2022-09-29T01:00:17;5.15;;;2.42;;
1949;SDS011;975;48.760;9.152;2022-09-29T01:02:45;5.47;;;2.35;;
1949;SDS011;975;48.760;9.152;2022-09-29T01:05:15;8.13;;;3.00;;
1949;SDS011;975;48.760;9.152;2022-09-29T01:07:44;8.88;;;2.53;;
1949;SDS011;975;48.760;9.152;2022-09-29T01:10:12;5.30;;;2.53;;
1949;SDS011;975;48.760;9.152;2022-09-29T01:12:43;3.25;;;2.15;;
1949;SDS011;975;48.760;9.152;2022-09-29T01:15:12;6.32;;;2.35;;
1949;SDS011;975;48.760;9.152;2022-09-29T01:17:39;5.93;;;2.58;;
1949;SDS011;975;48.760;9.152;2022-09-29T01:20:09;3.83;;;2.38;;
1949;SDS011;975;48.760;9.152;2022-09-29T01:22:47;5.53;;;2.00;;
1949;SDS011;975;48.760;9.152;2022-09-29T01:25:23;4.78;;;2.08;;
1949;SDS011;975;48.760;9.152;2022-09-29T01:28:05;4.05;;;2.17;;
1949;SDS011;975;48.760;9.152;2022-09-29T01:30:43;4.10;;;2.40;;
1949;SDS011;975;48.760;9.152;2022-09-29T01:33:16;4.72;;;2.17;;
1949;SDS011;975;48.760;9.152;2022-09-29T01:42:37;6.13;;;2.40;;
1949;SDS011;975;48.760;9.152;2022-09-29T01:45:10;4.07;;;2.00;;
1949;SDS011;975;48.760;9.152;2022-09-29T01:47:40;4.80;;;2.60;;
1949;SDS011;975;48.760;9.152;2022-09-29T01:50:10;4.28;;;2.08;;
1949;SDS011;975;48.760;9.152;2022-09-29T01:52:40;4.88;;;1.90;;
1949;SDS011;975;48.760;9.152;2022-09-29T01:55:09;3.67;;;2.15;;
1949;SDS011;975;48.760;9.152;2022-09-29T01:57:40;4.60;;;2.15;;
1949;SDS011;975;48.760;9.152;2022-09-29T02:28:35;3.63;;;1.75;;
1949;SDS011;975;48.760;9.152;2022-09-29T02:31:04;4.97;;;2.38;;
1949;SDS011;975;48.760;9.152;2022-09-29T02:33:32;5.13;;;2.17;;
1949;SDS011;975;48.760;9.152;2022-09-29T02:36:02;5.60;;;2.22;;
1949;SDS011;975;48.760;9.152;2022-09-29T02:38:35;4.80;;;1.88;;
1949;SDS011;975;48.760;9.152;2022-09-29T02:41:08;6.95;;;2.08;;
1949;SDS011;975;48.760;9.152;2022-09-29T02:43:49;4.05;;;2.08;;
1949;SDS011;975;48.760;9.152;2022-09-29T02:46:25;3.63;;;1.95;;
1949;SDS011;975;48.760;9.152;2022-09-29T02:51:26;2.70;;;1.67;;
1949;SDS011;975;48.760;9.152;2022-09-29T02:53:58;2.47;;;1.73;;
1949;SDS011;975;48.760;9.152;2022-09-29T02:56:30;2.88;;;1.88;;
1949;SDS011;975;48.760;9.152;2022-09-29T02:59:02;3.45;;;1.88;;
1949;SDS011;975;48.760;9.152;2022-09-29T03:01:30;4.03;;;1.85;;
1949;SDS011;975;48.760;9.152;2022-09-29T03:03:58;4.25;;;1.70;;
1949;SDS011;975;48.760;9.152;2022-09-29T03:06:26;4.22;;;1.70;;
1949;SDS011;975;48.760;9.152;2022-09-29T03:08:54;3.05;;;2.00;;
1949;SDS011;975;48.760;9.152;2022-09-29T03:11:22;4.00;;;2.10;;
1949;SDS011;975;48.760;9.152;2022-09-29T03:13:49;4.03;;;1.83;;
1949;SDS011;975;48.760;9.152;2022-09-29T03:16:18;2.72;;;1.60;;
1949;SDS011;975;48.760;9.152;2022-09-29T03:18:46;4.78;;;1.70;;
1949;SDS011;975;48.760;9.152;2022-09-29T03:21:14;3.90;;;1.80;;
1949;SDS011;975;48.760;9.152;2022-09-29T03:23:41;5.35;;;2.08;;
1949;SDS011;975;48.760;9.152;2022-09-29T03:26:09;4.57;;;2.05;;
1949;SDS011;975;48.760;9.152;2022-09-29T03:28:37;3.72;;;1.80;;
1949;SDS011;975;48.760;9.152;2022-09-29T03:31:05;6.25;;;2.03;;
1949;SDS011;975;48.760;9.152;2022-09-29T03:33:35;3.33;;;1.67;;
1949;SDS011;975;48.760;9.152;2022-09-29T03:36:04;5.18;;;2.05;;
1949;SDS011;975;48.760;9.152;2022-09-29T03:38:33;4.00;;;2.05;;
1949;SDS011;975;48.760;9.152;2022-09-29T03:41:03;2.92;;;1.98;;
1949;SDS011;975;48.760;9.152;2022-09-29T03:43:31;4.28;;;1.90;;
1949;SDS011;975;48.760;9.152;2022-09-29T03:45:59;2.63;;;1.90;;
1949;SDS011;975;48.760;9.152;2022-09-29T03:48:29;2.97;;;1.83;;
1949;SDS011;975;48.760;9.152;2022-09-29T03:51:00;3.53;;;2.15;;
1949;SDS011;975;48.760;9.152;2022-09-29T03:53:29;4.60;;;2.15;;
1949;SDS011;975;48.760;9.152;2022-09-29T03:55:56;5.07;;;2.05;;
1949;SDS011;975;48.760;9.152;2022-09-29T03:58:24;5.13;;;2.15;;
1949;SDS011;975;48.760;9.152;2022-09-29T04:00:52;3.88;;;2.25;;
1949;SDS011;975;48.760;9.152;2022-09-29T04:03:20;4.20;;;1.88;;
1949;SDS011;975;48.760;9.152;2022-09-29T04:05:47;3.95;;;1.95;;
1949;SDS011;975;48.760;9.152;2022-09-29T04:08:16;4.80;;;2.08;;
1949;SDS011;975;48.760;9.152;2022-09-29T04:10:44;3.22;;;1.70;;
1949;SDS011;975;48.760;9.152;2022-09-29T04:16:29;5.32;;;1.90;;
1949;SDS011;975;48.760;9.152;2022-09-29T04:18:56;5.63;;;1.90;;
1949;SDS011;975;48.760;9.152;2022-09-29T04:21:24;2.97;;;1.63;;
1949;SDS011;975;48.760;9.152;2022-09-29T04:23:52;5.97;;;2.20;;
1949;SDS011;975;48.760;9.152;2022-09-29T04:26:20;4.70;;;2.00;;
1949;SDS011;975;48.760;9.152;2022-09-29T04:28:47;4.00;;;1.75;;
1949;SDS011;975;48.760;9.152;2022-09-29T04:31:15;5.32;;;2.00;;
1949;SDS011;975;48.760;9.152;2022-09-29T04:33:44;4.47;;;2.30;;
1949;SDS011;975;48.760;9.152;2022-09-29T04:36:12;3.65;;;2.20;;
1949;SDS011;975;48.760;9.152;2022-09-29T04:38:39;4.72;;;1.92;;
1949;SDS011;975;48.760;9.152;2022-09-29T04:41:08;4.65;;;2.30;;
1949;SDS011;975;48.760;9.152;2022-09-29T04:43:36;5.55;;;1.83;;
1949;SDS011;975;48.760;9.152;2022-09-29T04:46:04;3.90;;;2.08;;
1949;SDS011;975;48.760;9.152;2022-09-29T04:48:33;5.05;;;1.85;;
1949;SDS011;975;48.760;9.152;2022-09-29T04:51:02;4.68;;;2.00;;
1949;SDS011;975;48.760;9.152;2022-09-29T04:53:30;3.45;;;2.10;;
1949;SDS011;975;48.760;9.152;2022-09-29T04:55:58;2.90;;;1.90;;
1949;SDS011;975;48.760;9.152;2022-09-29T04:58:27;4.03;;;1.92;;
1949;SDS011;975;48.760;9.152;2022-09-29T05:00:55;6.45;;;2.42;;
1949;SDS011;975;48.760;9.152;2022-09-29T05:03:22;3.63;;;2.17;;
1949;SDS011;975;48.760;9.152;2022-09-29T05:05:53;6.40;;;2.05;;
1949;SDS011;975;48.760;9.152;2022-09-29T05:08:21;4.55;;;2.10;;
1949;SDS011;975;48.760;9.152;2022-09-29T05:10:48;4.45;;;2.15;;
1949;SDS011;975;48.760;9.152;2022-09-29T05:13:17;8.02;;;2.28;;
1949;SDS011;975;48.760;9.152;2022-09-29T05:15:46;4.13;;;2.40;;
1949;SDS011;975;48.760;9.152;2022-09-29T05:18:14;5.38;;;2.10;;
1949;SDS011;975;48.760;9.152;2022-09-29T05:20:42;7.03;;;2.72;;
1949;SDS011;975;48.760;9.152;2022-09-29T05:23:09;5.20;;;2.20;;
1949;SDS011;975;48.760;9.152;2022-09-29T05:25:37;3.90;;;2.05;;
1949;SDS011;975;48.760;9.152;2022-09-29T05:28:05;5.07;;;2.30;;
1949;SDS011;975;48.760;9.152;2022-09-29T05:30:33;5.45;;;2.42;;
1949;SDS011;975;48.760;9.152;2022-09-29T05:33:03;3.83;;;1.73;;
1949;SDS011;975;48.760;9.152;2022-09-29T05:35:30;6.18;;;2.42;;
1949;SDS011;975;48.760;9.152;2022-09-29T05:37:58;6.25;;;2.03;;
1949;SDS011;975;48.760;9.152;2022-09-29T05:40:26;3.47;;;1.88;;
1949;SDS011;975;48.760;9.152;2022-09-29T05:42:54;4.78;;;2.08;;
1949;SDS011;975;48.760;9.152;2022-09-29T05:45:21;4.30;;;2.40;;
1949;SDS011;975;48.760;9.152;2022-09-29T05:47:49;11.05;;;3.00;;
1949;SDS011;975;48.760;9.152;2022-09-29T05:50:20;5.82;;;2.90;;
1949;SDS011;975;48.760;9.152;2022-09-29T05:52:48;4.78;;;2.25;;
1949;SDS011;975;48.760;9.152;2022-09-29T05:55:17;5.50;;;2.42;;
1949;SDS011;975;48.760;9.152;2022-09-29T05:57:46;5.57;;;2.00;;
1949;SDS011;975;48.760;9.152;2022-09-29T06:00:17;9.73;;;2.83;;
1949;SDS011;975;48.760;9.152;2022-09-29T06:02:49;3.17;;;2.00;;
1949;SDS011;975;48.760;9.152;2022-09-29T06:05:24;5.53;;;2.25;;
1949;SDS011;975;48.760;9.152;2022-09-29T06:07:52;5.80;;;1.90;;
1949;SDS011;975;48.760;9.152;2022-09-29T06:10:20;6.82;;;2.30;;
1949;SDS011;975;48.760;9.152;2022-09-29T06:12:48;3.88;;;2.42;;
1949;SDS011;975;48.760;9.152;2022-09-29T06:15:15;6.82;;;2.53;;
1949;SDS011;975;48.760;9.152;2022-09-29T06:17:43;5.47;;;2.35;;
1949;SDS011;975;48.760;9.152;2022-09-29T06:40:22;7.43;;;2.78;;
1949;SDS011;975;48.760;9.152;2022-09-29T06:42:52;6.30;;;3.22;;
1949;SDS011;975;48.760;9.152;2022-09-29T06:45:19;6.60;;;2.85;;
1949;SDS011;975;48.760;9.152;2022-09-29T06:47:47;6.85;;;3.35;;
1949;SDS011;975;48.760;9.152;2022-09-29T06:50:15;4.78;;;3.05;;
1949;SDS011;975;48.760;9.152;2022-09-29T06:52:42;6.07;;;2.65;;
1949;SDS011;975;48.760;9.152;2022-09-29T06:55:10;11.15;;;2.97;;
1949;SDS011;975;48.760;9.152;2022-09-29T06:57:39;4.97;;;3.20;;
1949;SDS011;975;48.760;9.152;2022-09-29T07:00:07;5.38;;;3.20;;
1949;SDS011;975;48.760;9.152;2022-09-29T07:02:35;5.75;;;2.90;;
1949;SDS011;975;48.760;9.152;2022-09-29T07:05:03;13.20;;;3.35;;
1949;SDS011;975;48.760;9.152;2022-09-29T07:07:31;5.97;;;3.25;;
1949;SDS011;975;48.760;9.152;2022-09-29T07:09:58;6.55;;;3.42;;
1949;SDS011;975;48.760;9.152;2022-09-29T07:12:27;5.93;;;3.08;;
1949;SDS011;975;48.760;9.152;2022-09-29T07:14:57;7.25;;;3.08;;
1949;SDS011;975;48.760;9.152;2022-09-29T07:17:24;10.60;;;3.25;;
1949;SDS011;975;48.760;9.152;2022-09-29T07:19:52;5.65;;;2.90;;
1949;SDS011;975;48.760;9.152;2022-09-29T07:22:21;5.70;;;2.95;;
1949;SDS011;975;48.760;9.152;2022-09-29T07:24:48;10.20;;;3.47;;
1949;SDS011;975;48.760;9.152;2022-09-29T07:27:18;8.25;;;3.30;;
1949;SDS011;975;48.760;9.152;2022-09-29T07:29:48;6.53;;;3.47;;
1949;SDS011;975;48.760;9.152;2022-09-29T07:32:18;8.40;;;3.10;;
1949;SDS011;975;48.760;9.152;2022-09-29T07:34:45;6.82;;;3.60;;
1949;SDS011;975;48.760;9.152;2022-09-29T07:37:13;5.45;;;2.78;;
1949;SDS011;975;48.760;9.152;2022-09-29T07:39:41;8.18;;;3.15;;
1949;SDS011;975;48.760;9.152;2022-09-29T07:42:08;5.88;;;3.42;;
1949;SDS011;975;48.760;9.152;2022-09-29T07:44:36;7.35;;;3.45;;
1949;SDS011;975;48.760;9.152;2022-09-29T07:47:04;10.90;;;3.65;;
1949;SDS011;975;48.760;9.152;2022-09-29T07:49:33;6.93;;;3.47;;
1949;SDS011;975;48.760;9.152;2022-09-29T07:52:01;5.50;;;3.03;;
1949;SDS011;975;48.760;9.152;2022-09-29T07:54:28;7.65;;;3.42;;
1949;SDS011;975;48.760;9.152;2022-09-29T07:56:56;8.90;;;3.30;;
1949;SDS011;975;48.760;9.152;2022-09-29T07:59:25;10.88;;;3.60;;
1949;SDS011;975;48.760;9.152;2022-09-29T08:01:53;8.05;;;3.35;;
1949;SDS011;975;48.760;9.152;2022-09-29T08:04:20;6.55;;;2.92;;
1949;SDS011;975;48.760;9.152;2022-09-29T08:06:50;4.85;;;2.80;;
1949;SDS011;975;48.760;9.152;2022-09-29T08:09:17;7.47;;;3.35;;
1949;SDS011;975;48.760;9.152;2022-09-29T08:11:45;9.05;;;2.75;;
1949;SDS011;975;48.760;9.152;2022-09-29T08:14:13;6.47;;;3.10;;
1949;SDS011;975;48.760;9.152;2022-09-29T08:16:40;5.57;;;3.10;;
1949;SDS011;975;48.760;9.152;2022-09-29T08:19:08;5.03;;;2.75;;
1949;SDS011;975;48.760;9.152;2022-09-29T08:21:36;6.97;;;3.05;;
1949;SDS011;975;48.760;9.152;2022-09-29T08:24:05;6.10;;;3.00;;
1949;SDS011;975;48.760;9.152;2022-09-29T08:26:34;6.78;;;2.80;;
1949;SDS011;975;48.760;9.152;2022-09-29T08:29:02;7.72;;;3.58;;
1949;SDS011;975;48.760;9.152;2022-09-29T08:31:30;8.30;;;3.00;;
1949;SDS011;975;48.760;9.152;2022-09-29T08:33:58;8.73;;;3.08;;
1949;SDS011;975;48.760;9.152;2022-09-29T08:36:26;6.07;;;2.95;;
1949;SDS011;975;48.760;9.152;2022-09-29T08:38:54;7.18;;;3.35;;
1949;SDS011;975;48.760;9.152;2022-09-29T08:41:30;4.93;;;2.40;;
1949;SDS011;975;48.760;9.152;2022-09-29T08:46:27;4.78;;;2.45;;
1949;SDS011;975;48.760;9.152;2022-09-29T08:48:58;4.10;;;2.40;;
1949;SDS011;975;48.760;9.152;2022-09-29T08:51:28;6.57;;;2.55;;
1949;SDS011;975;48.760;9.152;2022-09-29T08:53:58;6.18;;;3.10;;
1949;SDS011;975;48.760;9.152;2022-09-29T08:56:27;5.97;;;2.47;;
1949;SDS011;975;48.760;9.152;2022-09-29T08:58:56;7.47;;;2.40;;
1949;SDS011;975;48.760;9.152;2022-09-29T09:01:27;5.07;;;2.30;;
1949;SDS011;975;48.760;9.152;2022-09-29T09:04:17;3.25;;;2.33;;
1949;SDS011;975;48.760;9.152;2022-09-29T09:06:54;4.88;;;2.33;;
1949;SDS011;975;48.760;9.152;2022-09-29T09:09:28;5.90;;;2.08;;
1949;SDS011;975;48.760;9.152;2022-09-29T09:14:50;4.45;;;2.13;;
1949;SDS011;975;48.760;9.152;2022-09-29T09:17:23;4.35;;;1.90;;
1949;SDS011;975;48.760;9.152;2022-09-29T09:20:07;2.97;;;1.70;;
1949;SDS011;975;48.760;9.152;2022-09-29T09:22:39;3.67;;;1.52;;
1949;SDS011;975;48.760;9.152;2022-09-29T09:25:12;2.25;;;1.50;;
1949;SDS011;975;48.760;9.152;2022-09-29T09:27:46;6.32;;;1.90;;
1949;SDS011;975;48.760;9.152;2022-09-29T09:30:17;4.43;;;2.10;;
1949;SDS011;975;48.760;9.152;2022-09-29T09:32:46;2.85;;;1.48;;
1949;SDS011;975;48.760;9.152;2022-09-29T09:35:26;3.17;;;1.65;;
1949;SDS011;975;48.760;9.152;2022-09-29T09:37:56;1.45;;;1.23;;
1949;SDS011;975;48.760;9.152;2022-09-29T09:40:26;3.22;;;1.60;;
1949;SDS011;975;48.760;9.152;2022-09-29T09:45:27;4.30;;;1.20;;
1949;SDS011;975;48.760;9.152;2022-09-29T09:47:57;3.92;;;1.52;;
1949;SDS011;975;48.760;9.152;2022-09-29T09:50:26;3.60;;;1.40;;
1949;SDS011;975;48.760;9.152;2022-09-29T09:52:54;4.72;;;1.17;;
1949;SDS011;975;48.760;9.152;2022-09-29T09:55:23;1.98;;;1.58;;
1949;SDS011;975;48.760;9.152;2022-09-29T09:58:00;1.90;;;1.20;;
1949;SDS011;975;48.760;9.152;2022-09-29T10:00:35;1.50;;;1.00;;
1949;SDS011;975;48.760;9.152;2022-09-29T10:03:04;3.65;;;1.20;;
1949;SDS011;975;48.760;9.152;2022-09-29T10:05:34;2.60;;;1.08;;
1949;SDS011;975;48.760;9.152;2022-09-29T10:10:31;5.82;;;2.90;;
1949;SDS011;975;48.760;9.152;2022-09-29T10:13:00;2.67;;;1.35;;
1949;SDS011;975;48.760;9.152;2022-09-29T10:15:30;2.63;;;1.50;;
1949;SDS011;975;48.760;9.152;2022-09-29T10:18:02;3.20;;;1.30;;
1949;SDS011;975;48.760;9.152;2022-09-29T10:20:32;3.08;;;1.52;;
1949;SDS011;975;48.760;9.152;2022-09-29T10:23:19;3.55;;;1.10;;
1949;SDS011;975;48.760;9.152;2022-09-29T10:25:51;3.22;;;1.52;;
1949;SDS011;975;48.760;9.152;2022-09-29T10:28:19;2.10;;;1.00;;
1949;SDS011;975;48.760;9.152;2022-09-29T10:30:47;4.13;;;1.48;;
1949;SDS011;975;48.760;9.152;2022-09-29T10:33:17;1.63;;;1.10;;
1949;SDS011;975;48.760;9.152;2022-09-29T10:35:47;2.58;;;1.13;;
1949;SDS011;975;48.760;9.152;2022-09-29T10:38:17;3.25;;;0.90;;
1949;SDS011;975;48.760;9.152;2022-09-29T10:40:53;3.25;;;1.15;;
1949;SDS011;975;48.760;9.152;2022-09-29T10:43:22;4.43;;;1.30;;
1949;SDS011;975;48.760;9.152;2022-09-29T10:45:51;2.67;;;1.20;;
1949;SDS011;975;48.760;9.152;2022-09-29T10:48:24;3.65;;;1.10;;
1949;SDS011;975;48.760;9.152;2022-09-29T10:50:53;2.78;;;1.23;;
1949;SDS011;975;48.760;9.152;2022-09-29T10:53:28;4.00;;;1.00;;
1949;SDS011;975;48.760;9.152;2022-09-29T10:58:27;3.50;;;0.90;;
1949;SDS011;975;48.760;9.152;2022-09-29T11:01:03;2.08;;;0.80;;
1949;SDS011;975;48.760;9.152;2022-09-29T11:03:34;2.17;;;0.80;;
1949;SDS011;975;48.760;9.152;2022-09-29T11:06:05;2.38;;;1.02;;
1949;SDS011;975;48.760;9.152;2022-09-29T11:08:33;4.47;;;1.58;;
1949;SDS011;975;48.760;9.152;2022-09-29T11:11:19;2.53;;;1.33;;
1949;SDS011;975;48.760;9.152;2022-09-29T11:13:48;2.88;;;1.50;;
1949;SDS011;975;48.760;9.152;2022-09-29T11:16:18;4.88;;;1.17;;
1949;SDS011;975;48.760;9.152;2022-09-29T11:18:48;2.75;;;1.20;;
1949;SDS011;975;48.760;9.152;2022-09-29T11:21:43;1.83;;;1.20;;
1949;SDS011;975;48.760;9.152;2022-09-29T11:24:15;4.40;;;0.90;;
1949;SDS011;975;48.760;9.152;2022-09-29T11:26:50;1.35;;;0.90;;
1949;SDS011;975;48.760;9.152;2022-09-29T11:29:24;1.58;;;0.95;;
1949;SDS011;975;48.760;9.152;2022-09-29T11:31:56;3.30;;;1.20;;
1949;SDS011;975;48.760;9.152;2022-09-29T11:34:33;2.95;;;1.20;;
1949;SDS011;975;48.760;9.152;2022-09-29T11:37:04;2.00;;;1.20;;
1949;SDS011;975;48.760;9.152;2022-09-29T11:39:36;2.05;;;0.90;;
1949;SDS011;975;48.760;9.152;2022-09-29T11:42:14;3.72;;;0.93;;
1949;SDS011;975;48.760;9.152;2022-09-29T11:44:52;4.97;;;1.27;;
1949;SDS011;975;48.760;9.152;2022-09-29T11:47:29;1.88;;;0.95;;
1949;SDS011;975;48.760;9.152;2022-09-29T11:50:15;1.50;;;0.70;;
1949;SDS011;975;48.760;9.152;2022-09-29T11:55:42;2.15;;;0.90;;
1949;SDS011;975;48.760;9.152;2022-09-29T11:58:17;1.42;;;1.02;;
1949;SDS011;975;48.760;9.152;2022-09-29T12:00:50;1.50;;;0.82;;
1949;SDS011;975;48.760;9.152;2022-09-29T12:06:12;4.15;;;1.00;;
1949;SDS011;975;48.760;9.152;2022-09-29T12:08:45;1.77;;;0.80;;
1949;SDS011;975;48.760;9.152;2022-09-29T12:11:19;1.55;;;0.85;;
1949;SDS011;975;48.760;9.152;2022-09-29T12:13:50;1.52;;;0.90;;
1949;SDS011;975;48.760;9.152;2022-09-29T12:16:19;1.98;;;0.80;;
1949;SDS011;975;48.760;9.152;2022-09-29T12:18:50;2.25;;;1.02;;
1949;SDS011;975;48.760;9.152;2022-09-29T12:21:22;6.22;;;1.13;;
1949;SDS011;975;48.760;9.152;2022-09-29T12:23:53;1.67;;;0.90;;
1949;SDS011;975;48.760;9.152;2022-09-29T12:26:22;12.25;;;1.50;;
1949;SDS011;975;48.760;9.152;2022-09-29T12:28:51;3.30;;;1.20;;
1949;SDS011;975;48.760;9.152;2022-09-29T12:31:21;2.45;;;1.17;;
1949;SDS011;975;48.760;9.152;2022-09-29T12:33:51;2.00;;;0.98;;
1949;SDS011;975;48.760;9.152;2022-09-29T12:36:25;2.15;;;1.00;;
1949;SDS011;975;48.760;9.152;2022-09-29T12:39:25;5.00;;;1.48;;
1949;SDS011;975;48.760;9.152;2022-09-29T12:41:57;1.23;;;0.80;;
1949;SDS011;975;48.760;9.152;2022-09-29T12:44:31;1.88;;;0.80;;
1949;SDS011;975;48.760;9.152;2022-09-29T12:47:03;4.80;;;1.10;;
1949;SDS011;975;48.760;9.152;2022-09-29T12:49:36;4.53;;;1.10;;
1949;SDS011;975;48.760;9.152;2022-09-29T12:54:35;1.95;;;1.10;;
1949;SDS011;975;48.760;9.152;2022-09-29T12:57:08;1.90;;;0.90;;
1949;SDS011;975;48.760;9.152;2022-09-29T12:59:40;4.88;;;0.80;;
1949;SDS011;975;48.760;9.152;2022-09-29T13:02:17;0.90;;;0.75;;
1949;SDS011;975;48.760;9.152;2022-09-29T13:04:58;3.70;;;0.73;;
1949;SDS011;975;48.760;9.152;2022-09-29T13:10:23;2.22;;;1.20;;
1949;SDS011;975;48.760;9.152;2022-09-29T13:12:59;2.50;;;0.82;;
1949;SDS011;975;48.760;9.152;2022-09-29T13:15:34;1.90;;;1.05;;
1949;SDS011;975;48.760;9.152;2022-09-29T13:18:14;2.58;;;0.88;;
1949;SDS011;975;48.760;9.152;2022-09-29T13:20:55;15.32;;;7.40;;
1949;SDS011;975;48.760;9.152;2022-09-29T13:28:53;1.95;;;0.85;;
1949;SDS011;975;48.760;9.152;2022-09-29T13:31:23;2.35;;;0.88;;
1949;SDS011;975;48.760;9.152;2022-09-29T13:33:53;3.75;;;1.20;;
1949;SDS011;975;48.760;9.152;2022-09-29T13:36:22;1.80;;;0.95;;
1949;SDS011;975;48.760;9.152;2022-09-29T13:38:52;2.63;;;1.15;;
1949;SDS011;975;48.760;9.152;2022-09-29T13:41:34;3.00;;;0.82;;
1949;SDS011;975;48.760;9.152;2022-09-29T13:44:06;3.22;;;0.80;;
1949;SDS011;975;48.760;9.152;2022-09-29T13:46:46;1.38;;;0.80;;
1949;SDS011;975;48.760;9.152;2022-09-29T13:49:16;1.60;;;1.05;;
1949;SDS011;975;48.760;9.152;2022-09-29T13:51:50;3.03;;;1.35;;
1949;SDS011;975;48.760;9.152;2022-09-29T13:54:22;4.57;;;0.93;;
1949;SDS011;975;48.760;9.152;2022-09-29T13:56:51;1.63;;;0.98;;
1949;SDS011;975;48.760;9.152;2022-09-29T13:59:26;2.35;;;0.95;;
1949;SDS011;975;48.760;9.152;2022-09-29T14:01:54;2.50;;;0.90;;
1949;SDS011;975;48.760;9.152;2022-09-29T14:07:10;2.75;;;1.15;;
1949;SDS011;975;48.760;9.152;2022-09-29T14:09:38;3.38;;;1.17;;
1949;SDS011;975;48.760;9.152;2022-09-29T14:12:08;3.17;;;1.33;;
1949;SDS011;975;48.760;9.152;2022-09-29T14:14:43;2.67;;;1.02;;
1949;SDS011;975;48.760;9.152;2022-09-29T14:17:13;3.35;;;1.02;;
1949;SDS011;975;48.760;9.152;2022-09-29T14:19:45;2.60;;;1.00;;
1949;SDS011;975;48.760;9.152;2022-09-29T14:27:44;2.83;;;1.13;;
1949;SDS011;975;48.760;9.152;2022-09-29T14:30:16;3.40;;;0.93;;
1949;SDS011;975;48.760;9.152;2022-09-29T14:32:47;2.97;;;1.15;;
1949;SDS011;975;48.760;9.152;2022-09-29T14:35:26;1.33;;;0.95;;
1949;SDS011;975;48.760;9.152;2022-09-29T14:37:59;3.30;;;1.20;;
1949;SDS011;975;48.760;9.152;2022-09-29T14:40:28;4.25;;;1.20;;
1949;SDS011;975;48.760;9.152;2022-09-29T14:43:09;3.25;;;1.30;;
1949;SDS011;975;48.760;9.152;2022-09-29T14:45:43;1.75;;;1.05;;
1949;SDS011;975;48.760;9.152;2022-09-29T14:48:33;4.00;;;1.30;;
1949;SDS011;975;48.760;9.152;2022-09-29T14:51:23;3.83;;;1.30;;
1949;SDS011;975;48.760;9.152;2022-09-29T14:54:13;2.22;;;1.13;;
1949;SDS011;975;48.760;9.152;2022-09-29T14:56:47;5.72;;;1.30;;
1949;SDS011;975;48.760;9.152;2022-09-29T14:59:19;3.05;;;1.25;;
1949;SDS011;975;48.760;9.152;2022-09-29T15:04:39;3.20;;;1.38;;
1949;SDS011;975;48.760;9.152;2022-09-29T15:07:09;4.35;;;1.85;;
1949;SDS011;975;48.760;9.152;2022-09-29T15:12:11;3.55;;;1.50;;
1949;SDS011;975;48.760;9.152;2022-09-29T15:14:40;2.13;;;1.35;;
1949;SDS011;975;48.760;9.152;2022-09-29T15:17:12;3.00;;;1.20;;
1949;SDS011;975;48.760;9.152;2022-09-29T15:19:46;2.90;;;1.40;;
1949;SDS011;975;48.760;9.152;2022-09-29T15:22:21;3.45;;;1.33;;
1949;SDS011;975;48.760;9.152;2022-09-29T15:25:01;5.88;;;1.60;;
1949;SDS011;975;48.760;9.152;2022-09-29T15:27:33;2.55;;;1.33;;
1949;SDS011;975;48.760;9.152;2022-09-29T15:30:10;3.97;;;1.60;;
1949;SDS011;975;48.760;9.152;2022-09-29T15:32:40;3.47;;;1.58;;
1949;SDS011;975;48.760;9.152;2022-09-29T15:35:11;5.20;;;1.48;;
1949;SDS011;975;48.760;9.152;2022-09-29T15:37:54;12.40;;;5.78;;
1949;SDS011;975;48.760;9.152;2022-09-29T15:40:24;3.03;;;1.73;;
1949;SDS011;975;48.760;9.152;2022-09-29T15:42:52;3.45;;;2.03;;
1949;SDS011;975;48.760;9.152;2022-09-29T15:45:21;2.85;;;1.48;;
1949;SDS011;975;48.760;9.152;2022-09-29T15:47:57;2.75;;;1.52;;
1949;SDS011;975;48.760;9.152;2022-09-29T15:50:27;5.15;;;1.77;;
1949;SDS011;975;48.760;9.152;2022-09-29T15:52:58;1.67;;;1.10;;
1949;SDS011;975;48.760;9.152;2022-09-29T15:55:39;3.08;;;1.75;;
1949;SDS011;975;48.760;9.152;2022-09-29T15:58:32;2.08;;;1.38;;
1949;SDS011;975;48.760;9.152;2022-09-29T16:01:01;3.63;;;2.00;;
1949;SDS011;975;48.760;9.152;2022-09-29T16:03:34;4.47;;;1.80;;
1949;SDS011;975;48.760;9.152;2022-09-29T16:06:12;6.47;;;1.60;;
1949;SDS011;975;48.760;9.152;2022-09-29T16:08:42;5.72;;;1.40;;
1949;SDS011;975;48.760;9.152;2022-09-29T16:11:15;5.53;;;1.70;;
1949;SDS011;975;48.760;9.152;2022-09-29T16:17:09;4.35;;;1.60;;
1949;SDS011;975;48.760;9.152;2022-09-29T16:19:38;10.52;;;2.50;;
1949;SDS011;975;48.760;9.152;2022-09-29T16:22:13;4.20;;;1.75;;
1949;SDS011;975;48.760;9.152;2022-09-29T16:24:50;3.08;;;1.55;;
1949;SDS011;975;48.760;9.152;2022-09-29T16:33:13;2.47;;;1.33;;
1949;SDS011;975;48.760;9.152;2022-09-29T16:35:43;3.40;;;1.60;;
1949;SDS011;975;48.760;9.152;2022-09-29T16:38:18;5.38;;;1.60;;
1949;SDS011;975;48.760;9.152;2022-09-29T16:40:48;4.68;;;1.52;;
1949;SDS011;975;48.760;9.152;2022-09-29T16:43:18;6.47;;;1.70;;
1949;SDS011;975;48.760;9.152;2022-09-29T16:45:48;4.50;;;1.80;;
1949;SDS011;975;48.760;9.152;2022-09-29T16:48:16;4.30;;;1.73;;
1949;SDS011;975;48.760;9.152;2022-09-29T16:50:45;3.90;;;1.83;;
1949;SDS011;975;48.760;9.152;2022-09-29T16:56:38;5.75;;;1.95;;
1949;SDS011;975;48.760;9.152;2022-09-29T16:59:08;5.55;;;2.10;;
1949;SDS011;975;48.760;9.152;2022-09-29T17:01:37;4.78;;;1.80;;
1949;SDS011;975;48.760;9.152;2022-09-29T17:04:05;3.83;;;1.77;;
1949;SDS011;975;48.760;9.152;2022-09-29T17:06:33;9.38;;;4.43;;
1949;SDS011;975;48.760;9.152;2022-09-29T17:09:01;11.82;;;6.53;;
1949;SDS011;975;48.760;9.152;2022-09-29T17:11:29;6.20;;;2.40;;
1949;SDS011;975;48.760;9.152;2022-09-29T17:13:58;3.50;;;1.70;;
1949;SDS011;975;48.760;9.152;2022-09-29T17:16:26;4.68;;;1.85;;
1949;SDS011;975;48.760;9.152;2022-09-29T17:18:55;3.20;;;1.70;;
1949;SDS011;975;48.760;9.152;2022-09-29T17:21:26;5.20;;;2.28;;
1949;SDS011;975;48.760;9.152;2022-09-29T17:23:54;5.63;;;1.83;;
1949;SDS011;975;48.760;9.152;2022-09-29T17:26:22;4.55;;;1.73;;
1949;SDS011;975;48.760;9.152;2022-09-29T17:29:09;7.38;;;1.85;;
1949;SDS011;975;48.760;9.152;2022-09-29T17:31:37;7.40;;;2.17;;
1949;SDS011;975;48.760;9.152;2022-09-29T17:34:05;4.25;;;1.92;;
1949;SDS011;975;48.760;9.152;2022-09-29T17:36:33;5.20;;;1.85;;
1949;SDS011;975;48.760;9.152;2022-09-29T17:39:01;4.15;;;1.75;;
1949;SDS011;975;48.760;9.152;2022-09-29T17:41:28;3.40;;;1.75;;
1949;SDS011;975;48.760;9.152;2022-09-29T17:43:56;6.05;;;1.85;;
1949;SDS011;975;48.760;9.152;2022-09-29T17:46:25;5.47;;;1.70;;
1949;SDS011;975;48.760;9.152;2022-09-29T17:48:54;3.00;;;1.67;;
1949;SDS011;975;48.760;9.152;2022-09-29T17:51:22;4.70;;;1.70;;